Terminal Aerodrome Forecast
Issued by NWS

Home | Current Version | Previous Version | Text Only | Print | Product List | Glossary Off
Versions: 1 2 3 4 5 6 7 8 9 10 11 12 13

000
FTUS43 KMPX 180520
TAFRNH
TAF
KRNH 180520Z 1806/1906 23003KT P6SM FEW250
     FM181000 12005KT P6SM BKN100
     FM181500 14013G20KT P6SM SCT025 OVC080 WS020/19055KT
     FM182000 18012KT P6SM SCT025 OVC100
     FM190200 24007KT P6SM SCT025 OVC080
     FM190400 34006KT P6SM BKN025 OVC050=

USA.gov is the U.S. government's official web portal to all federal, state and local government web resources and services.